createdAt,value
2022-11-08T00:02:05.380Z,101106.25
2022-11-08T00:05:27.507Z,101106.75
2022-11-08T00:08:48.423Z,101105.47
2022-11-08T00:12:09.958Z,101113.62
2022-11-08T00:15:12.527Z,101116.47
2022-11-08T00:18:15.712Z,101111.81
2022-11-08T00:21:18.544Z,101111.47
2022-11-08T00:24:21.430Z,101105.88
2022-11-08T00:27:25.203Z,101105.88
2022-11-08T00:30:28.172Z,101107.63
2022-11-08T00:33:30.840Z,101104.13
2022-11-08T00:36:33.746Z,101107.31
2022-11-08T00:39:36.680Z,101110.19
2022-11-08T00:42:39.608Z,101100.09
2022-11-08T00:45:42.330Z,101106.94
2022-11-08T00:48:45.215Z,101106.31
2022-11-08T00:51:47.859Z,101101.97
2022-11-08T00:54:50.715Z,101110.63
2022-11-08T00:57:59.789Z,101100.50
2022-11-08T01:01:15.090Z,101107.69
2022-11-08T01:04:19.098Z,101105.25
2022-11-08T01:07:21.894Z,101089.62
2022-11-08T01:10:24.419Z,101108.66
2022-11-08T01:13:27.436Z,101112.63
2022-11-08T01:16:32.992Z,101111.13
2022-11-08T01:19:35.879Z,101114.63
2022-11-08T01:22:38.414Z,101106.28
2022-11-08T01:25:43.887Z,101104.03
2022-11-08T01:28:47.562Z,101107.41
2022-11-08T01:31:50.428Z,101108.34
2022-11-08T01:34:53.038Z,101112.97
2022-11-08T01:37:55.834Z,101113.31
2022-11-08T01:40:58.417Z,101099.88
2022-11-08T01:44:01.270Z,101102.88
2022-11-08T01:47:03.835Z,101109.41
2022-11-08T01:50:13.601Z,101107.16
2022-11-08T01:53:16.413Z,101108.94
2022-11-08T01:56:20.666Z,101110.97
2022-11-08T01:59:24.050Z,101103.03
2022-11-08T02:02:30.393Z,101093.88
2022-11-08T02:05:33.904Z,101091.50
2022-11-08T02:08:43.707Z,101091.78
2022-11-08T02:11:48.752Z,101087.50
2022-11-08T02:14:51.357Z,101071.94
2022-11-08T02:17:54.670Z,101080.13
2022-11-08T02:21:07.207Z,101065.44
2022-11-08T02:24:12.017Z,101086.41
2022-11-08T02:27:15.167Z,101076.34
2022-11-08T02:30:18.059Z,101084.37
2022-11-08T02:33:23.129Z,101070.16
2022-11-08T02:36:26.018Z,101073.22
2022-11-08T02:39:30.060Z,101073.16
2022-11-08T02:42:32.954Z,101080.31
2022-11-08T02:45:35.505Z,101050.84
2022-11-08T02:48:38.694Z,101071.13
2022-11-08T02:51:41.393Z,101062.31
2022-11-08T02:54:44.243Z,101074.03
2022-11-08T02:57:46.805Z,101076.41
2022-11-08T03:00:49.876Z,101079.25
2022-11-08T03:03:52.423Z,101085.59
2022-11-08T03:06:55.281Z,101086.81
2022-11-08T03:09:57.825Z,101089.72
2022-11-08T03:13:03.333Z,101080.75
2022-11-08T03:16:06.765Z,101094.41
2022-11-08T03:19:11.921Z,101092.25
2022-11-08T03:22:15.358Z,101092.44
2022-11-08T03:25:18.166Z,101107.97
2022-11-08T03:28:23.112Z,101093.19
2022-11-08T03:31:26.331Z,101095.25
2022-11-08T03:34:28.854Z,101095.94
2022-11-08T03:37:31.807Z,101099.47
2022-11-08T03:40:34.473Z,101097.97
2022-11-08T03:43:37.301Z,101083.44
2022-11-08T03:46:39.903Z,101098.75
2022-11-08T03:49:42.756Z,101098.16
2022-11-08T03:52:48.418Z,101104.09
2022-11-08T03:55:51.306Z,101106.28
2022-11-08T03:58:53.875Z,101112.22
2022-11-08T04:01:56.854Z,101114.03
2022-11-08T04:04:59.937Z,101109.72
2022-11-08T04:08:04.988Z,101117.31
2022-11-08T04:11:27.751Z,101111.09
2022-11-08T04:14:48.557Z,101102.28
2022-11-08T04:18:11.962Z,101110.12
2022-11-08T04:21:19.085Z,101104.28
2022-11-08T04:24:22.365Z,101108.31
2022-11-08T04:27:24.968Z,101108.72
2022-11-08T04:30:28.168Z,101112.75
2022-11-08T04:33:31.121Z,101098.88
2022-11-08T04:36:34.605Z,101090.56
2022-11-08T04:39:37.231Z,101092.84
2022-11-08T04:42:44.894Z,101087.22
2022-11-08T04:45:47.425Z,101093.81
2022-11-08T04:48:52.481Z,101093.81
2022-11-08T04:51:54.983Z,101099.50
2022-11-08T04:54:57.832Z,101099.84
2022-11-08T04:58:00.485Z,101103.62
2022-11-08T05:01:05.404Z,101094.22
2022-11-08T05:04:08.122Z,101098.72
2022-11-08T05:07:10.975Z,101101.66
2022-11-08T05:10:13.540Z,101099.53
2022-11-08T05:13:16.443Z,101094.84
2022-11-08T05:16:24.536Z,101097.78
2022-11-08T05:19:46.197Z,101113.38
2022-11-08T05:23:07.125Z,101107.47
2022-11-08T05:26:10.594Z,101108.59
2022-11-08T05:29:14.724Z,101116.03
2022-11-08T05:32:17.614Z,101125.22
2022-11-08T05:35:21.778Z,101129.03
2022-11-08T05:38:25.015Z,101127.44
2022-11-08T05:41:27.609Z,101134.63
2022-11-08T05:44:31.665Z,101121.31
2022-11-08T05:47:34.278Z,101129.63
2022-11-08T05:50:37.291Z,101137.41
2022-11-08T05:53:41.324Z,101138.03
2022-11-08T05:56:44.208Z,101140.34
2022-11-08T05:59:48.142Z,101147.47
2022-11-08T06:02:51.107Z,101141.19
2022-11-08T06:05:55.885Z,101155.09
2022-11-08T06:08:58.422Z,101157.31
2022-11-08T06:12:01.386Z,101153.00
2022-11-08T06:15:06.319Z,101142.97
2022-11-08T06:18:09.194Z,101154.69
2022-11-08T06:21:16.510Z,101149.22
2022-11-08T06:24:19.401Z,101139.97
2022-11-08T06:27:23.943Z,101149.06
2022-11-08T06:30:28.223Z,101153.94
2022-11-08T06:33:30.967Z,101132.94
2022-11-08T06:36:33.778Z,101157.34
2022-11-08T06:39:36.298Z,101159.94
2022-11-08T06:42:39.186Z,101164.25
2022-11-08T06:45:41.851Z,101151.13
2022-11-08T06:48:45.009Z,101153.84
2022-11-08T06:51:47.556Z,101154.63
2022-11-08T06:54:50.491Z,101154.28
2022-11-08T06:57:53.271Z,101146.22
2022-11-08T07:00:56.160Z,101137.66
2022-11-08T07:03:58.856Z,101138.87
2022-11-08T07:07:01.687Z,101137.78
2022-11-08T07:10:05.839Z,101138.47
2022-11-08T07:13:12.159Z,101141.38
2022-11-08T07:16:15.331Z,101146.81
2022-11-08T07:19:18.298Z,101148.06
2022-11-08T07:22:20.833Z,101147.75
2022-11-08T07:25:24.623Z,101141.66
2022-11-08T07:28:27.231Z,101149.34
2022-11-08T07:31:32.171Z,101149.31
2022-11-08T07:34:34.799Z,101156.44
2022-11-08T07:37:37.750Z,101148.72
2022-11-08T07:40:40.334Z,101140.53
2022-11-08T07:43:43.170Z,101148.75
2022-11-08T07:46:45.990Z,101154.16
2022-11-08T07:49:48.796Z,101151.87
2022-11-08T07:52:51.490Z,101151.03
2022-11-08T07:55:55.202Z,101154.16
2022-11-08T07:58:57.933Z,101152.50
2022-11-08T08:02:01.080Z,101154.97
2022-11-08T08:05:04.210Z,101155.53
2022-11-08T08:08:07.103Z,101150.91
2022-11-08T08:11:10.568Z,101148.34
2022-11-08T08:14:13.186Z,101151.19
2022-11-08T08:17:16.075Z,101145.59
2022-11-08T08:20:19.445Z,101149.88
2022-11-08T08:23:22.412Z,101146.09
2022-11-08T08:26:25.016Z,101144.53
2022-11-08T08:29:28.815Z,101141.09
2022-11-08T08:32:31.758Z,101146.56
2022-11-08T08:35:36.930Z,101141.94
2022-11-08T08:38:44.367Z,101144.44
2022-11-08T08:41:47.894Z,101151.69
2022-11-08T08:44:50.678Z,101143.50
2022-11-08T08:47:55.180Z,101142.66
2022-11-08T08:50:58.036Z,101142.06
2022-11-08T08:54:00.930Z,101146.75
2022-11-08T08:57:03.698Z,101144.12
2022-11-08T09:03:30.284Z,101154.59
2022-11-08T09:06:33.301Z,101158.09
2022-11-08T09:09:36.431Z,101158.22
2022-11-08T09:12:39.501Z,101160.69
2022-11-08T09:15:42.025Z,101162.72
2022-11-08T09:18:44.942Z,101170.59
2022-11-08T09:21:47.650Z,101169.00
2022-11-08T09:24:50.617Z,101172.59
2022-11-08T09:27:54.709Z,101168.03
2022-11-08T09:31:04.169Z,101176.75
2022-11-08T09:34:06.949Z,101171.97
2022-11-08T09:37:09.776Z,101173.31
2022-11-08T09:40:23.054Z,101169.41
2022-11-08T09:44:07.867Z,101168.31
2022-11-08T09:47:23.781Z,101168.72
2022-11-08T09:50:41.649Z,101166.16
2022-11-08T09:53:49.915Z,101164.72
2022-11-08T09:56:55.659Z,101168.44
2022-11-08T10:00:02.801Z,101162.87
2022-11-08T10:03:16.750Z,101159.22
2022-11-08T10:06:38.191Z,101155.50
2022-11-08T10:10:08.841Z,101156.81
2022-11-08T10:13:11.683Z,101153.38
2022-11-08T10:16:35.646Z,101150.66
2022-11-08T10:20:13.718Z,101148.19
2022-11-08T10:23:28.641Z,101140.25
2022-11-08T10:26:37.805Z,101138.00
2022-11-08T10:29:44.664Z,101146.75
2022-11-08T10:32:52.160Z,101146.38
2022-11-08T10:36:09.237Z,101134.34
2022-11-08T10:39:12.083Z,101146.38
2022-11-08T10:42:45.392Z,101145.56
2022-11-08T10:45:48.216Z,101141.19
2022-11-08T10:48:50.869Z,101140.81
2022-11-08T10:51:56.721Z,101140.44
2022-11-08T10:55:00.481Z,101143.47
2022-11-08T10:58:03.414Z,101136.31
2022-11-08T11:01:07.838Z,101141.16
2022-11-08T11:04:29.584Z,101132.53
2022-11-08T11:07:35.812Z,101134.28
2022-11-08T11:10:41.312Z,101118.44
2022-11-08T11:13:43.811Z,101129.78
2022-11-08T11:17:00.890Z,101119.41
2022-11-08T11:20:04.014Z,101114.75
2022-11-08T11:23:11.534Z,101116.91
2022-11-08T11:26:27.729Z,101107.75
2022-11-08T11:29:34.285Z,101110.53
2022-11-08T11:32:38.953Z,101101.03
2022-11-08T11:35:49.629Z,101099.72
2022-11-08T11:39:04.907Z,101102.53
2022-11-08T11:42:44.643Z,101098.97
2022-11-08T11:45:52.823Z,101091.31
2022-11-08T11:49:01.039Z,101089.84
2022-11-08T11:52:14.933Z,101090.41
2022-11-08T11:55:18.373Z,101080.09
2022-11-08T11:58:58.918Z,101088.13
2022-11-08T12:02:26.647Z,101084.34
2022-11-08T12:05:45.275Z,101088.28
2022-11-08T12:09:16.836Z,101090.38
2022-11-08T12:12:25.271Z,101077.94
2022-11-08T12:15:41.641Z,101070.97
2022-11-08T12:19:25.845Z,101079.78
2022-11-08T12:23:02.599Z,101078.91
2022-11-08T12:26:18.128Z,101081.84
2022-11-08T12:29:46.139Z,101081.84
2022-11-08T12:33:43.905Z,101080.34
2022-11-08T12:37:16.172Z,101074.88
2022-11-08T12:40:25.554Z,101073.19
2022-11-08T12:43:44.400Z,101068.16
2022-11-08T12:47:33.805Z,101072.19
2022-11-08T12:50:58.868Z,101064.75
2022-11-08T12:54:32.267Z,101064.00
2022-11-08T12:57:35.048Z,101058.88
2022-11-08T13:00:41.298Z,101052.09
2022-11-08T13:03:53.183Z,101046.87
2022-11-08T13:07:00.997Z,101045.59
2022-11-08T13:10:47.672Z,101047.88
2022-11-08T13:13:54.287Z,101044.13
2022-11-08T13:17:28.594Z,101035.09
2022-11-08T13:20:46.325Z,101028.47
2022-11-08T13:23:49.001Z,101032.81
2022-11-08T13:26:55.765Z,101019.09
2022-11-08T13:30:22.018Z,101030.19
2022-11-08T13:33:30.604Z,101022.97
2022-11-08T13:36:51.627Z,101025.31
2022-11-08T13:40:12.979Z,101031.59
2022-11-08T13:43:29.688Z,101028.34
2022-11-08T13:46:32.481Z,101035.06
2022-11-08T13:49:35.178Z,101037.81
2022-11-08T13:52:48.072Z,101042.44
2022-11-08T13:55:53.595Z,101037.34
2022-11-08T13:58:56.589Z,101036.00
2022-11-08T14:02:03.404Z,101040.69
2022-11-08T14:05:26.359Z,101035.84
2022-11-08T14:08:39.494Z,101034.09
2022-11-08T14:12:17.712Z,101024.47
2022-11-08T14:15:31.260Z,101023.44
2022-11-08T14:18:38.768Z,101022.25
2022-11-08T14:21:50.785Z,101027.31
2022-11-08T14:24:58.396Z,101019.56
2022-11-08T14:28:01.707Z,101024.78
2022-11-08T14:31:07.810Z,101032.09
2022-11-08T14:34:28.878Z,101029.09
2022-11-08T14:37:31.880Z,101026.56
2022-11-08T14:40:35.624Z,101030.16
2022-11-08T14:43:47.317Z,101035.41
2022-11-08T14:46:50.236Z,101027.16
2022-11-08T14:49:53.426Z,101028.25
2022-11-08T14:52:56.663Z,101029.16
2022-11-08T14:56:14.612Z,101029.13
2022-11-08T14:59:18.026Z,101023.44
2022-11-08T15:02:21.046Z,101022.56
2022-11-08T15:06:14.260Z,101010.75
2022-11-08T15:09:19.415Z,101018.88
2022-11-08T15:12:24.820Z,101018.44
2022-11-08T15:15:33.411Z,101011.22
2022-11-08T15:18:41.524Z,101005.53
2022-11-08T15:21:49.257Z,101012.44
2022-11-08T15:25:03.337Z,101010.09
2022-11-08T15:28:21.479Z,101013.19
2022-11-08T15:31:29.723Z,101000.47
2022-11-08T15:34:38.903Z,101017.72
2022-11-08T15:37:42.718Z,101017.59
2022-11-08T15:40:51.384Z,101013.44
2022-11-08T15:44:12.180Z,101013.37
2022-11-08T15:47:37.089Z,101015.00
2022-11-08T15:50:39.913Z,101011.88
2022-11-08T15:53:42.763Z,101009.09
2022-11-08T15:56:46.409Z,101009.56
2022-11-08T15:59:49.364Z,101001.78
2022-11-08T16:02:53.061Z,101003.06
2022-11-08T16:05:56.457Z,101006.69
2022-11-08T16:08:59.091Z,100999.31
2022-11-08T16:12:03.281Z,101000.31
2022-11-08T16:15:09.719Z,101005.81
2022-11-08T16:18:12.740Z,101004.56
2022-11-08T16:21:15.642Z,101004.47
2022-11-08T16:24:18.910Z,101008.72
2022-11-08T16:27:21.861Z,101018.38
2022-11-08T16:30:25.163Z,101009.19
2022-11-08T16:33:30.450Z,101009.72
2022-11-08T16:36:33.610Z,101013.59
2022-11-08T16:39:36.479Z,101007.88
2022-11-08T16:42:39.502Z,101011.22
2022-11-08T16:46:04.207Z,100991.06
2022-11-08T16:49:07.110Z,101016.87
2022-11-08T16:52:12.615Z,101006.09
2022-11-08T16:55:18.139Z,101010.34
2022-11-08T16:58:21.181Z,101013.53
2022-11-08T17:01:32.608Z,101015.38
2022-11-08T17:04:35.412Z,101014.50
2022-11-08T17:07:38.619Z,101013.44
2022-11-08T17:10:41.699Z,101023.31
2022-11-08T17:13:44.585Z,101020.75
2022-11-08T17:16:48.570Z,101020.91
2022-11-08T17:19:51.852Z,101022.84
2022-11-08T17:22:55.039Z,101016.56
2022-11-08T17:25:58.238Z,101008.44
2022-11-08T17:29:02.495Z,101018.34
2022-11-08T17:32:05.533Z,101026.22
2022-11-08T17:35:10.928Z,101020.37
2022-11-08T17:38:13.969Z,101017.31
2022-11-08T17:41:16.856Z,101015.16
2022-11-08T17:44:20.010Z,101010.63
2022-11-08T17:47:24.154Z,101014.41
2022-11-08T17:50:27.397Z,101010.75
2022-11-08T17:53:30.547Z,101003.69
2022-11-08T17:56:33.683Z,101003.84
2022-11-08T17:59:36.743Z,101008.00
2022-11-08T18:02:39.875Z,101008.81
2022-11-08T18:06:11.427Z,101016.50
2022-11-08T18:09:14.270Z,101014.81
2022-11-08T18:12:17.159Z,101014.03
2022-11-08T18:15:19.935Z,101015.91
2022-11-08T18:18:23.425Z,101014.78
2022-11-08T18:21:26.659Z,101020.47
2022-11-08T18:24:29.681Z,101015.25
2022-11-08T18:27:32.405Z,101020.59
2022-11-08T18:30:35.813Z,101014.56
2022-11-08T18:33:39.178Z,101007.16
2022-11-08T18:36:42.339Z,101006.00
2022-11-08T18:39:45.191Z,100996.09
2022-11-08T18:42:48.705Z,100998.16
2022-11-08T18:45:51.641Z,100995.28
2022-11-08T18:48:56.610Z,100988.34
2022-11-08T18:51:59.527Z,100983.78
2022-11-08T18:55:04.720Z,100986.41
2022-11-08T18:58:07.354Z,100980.72
2022-11-08T19:01:12.820Z,100992.13
2022-11-08T19:04:15.933Z,100991.56
2022-11-08T19:07:21.001Z,100993.13
2022-11-08T19:10:24.556Z,100989.50
2022-11-08T19:13:32.122Z,100990.97
2022-11-08T19:16:36.882Z,100996.72
2022-11-08T19:19:41.559Z,100996.28
2022-11-08T19:22:45.686Z,100991.34
2022-11-08T19:25:54.789Z,100978.28
2022-11-08T19:28:58.073Z,100977.47
2022-11-08T19:32:01.241Z,100977.28
2022-11-08T19:35:04.198Z,100989.06
2022-11-08T19:38:07.041Z,100990.31
2022-11-08T19:41:12.664Z,100997.31
2022-11-08T19:44:16.963Z,100993.03
2022-11-08T19:47:19.877Z,100997.06
2022-11-08T19:50:23.293Z,100991.78
2022-11-08T19:53:27.278Z,100993.91
2022-11-08T19:56:57.652Z,100995.38
2022-11-08T19:59:54.141Z,100984.53
2022-11-08T20:02:57.237Z,100998.75
2022-11-08T20:06:00.899Z,100997.25
2022-11-08T20:09:05.031Z,100999.25
2022-11-08T20:23:04.605Z,101006.75
2022-11-08T20:26:10.190Z,101005.69
2022-11-08T20:29:14.808Z,101011.59
2022-11-08T20:32:20.199Z,101015.16
2022-11-08T20:35:23.679Z,101019.87
2022-11-08T20:38:26.912Z,101017.03
2022-11-08T20:41:30.353Z,101019.75
2022-11-08T20:44:33.472Z,101019.19
2022-11-08T20:47:36.458Z,101025.84
2022-11-08T20:50:39.975Z,101027.94
2022-11-08T20:53:43.393Z,101025.88
2022-11-08T20:56:46.523Z,101027.19
2022-11-08T20:59:49.317Z,101023.06
2022-11-08T21:02:52.358Z,101029.94
2022-11-08T21:06:00.740Z,101030.53
2022-11-08T21:09:32.761Z,101022.50
2022-11-08T21:12:31.029Z,101028.50
2022-11-08T21:15:33.922Z,101018.09
2022-11-08T21:18:37.339Z,101015.91
2022-11-08T21:21:40.509Z,101017.28
2022-11-08T21:24:45.718Z,101015.22
2022-11-08T21:27:48.701Z,100999.41
2022-11-08T21:30:51.396Z,101015.34
2022-11-08T21:33:54.633Z,101016.37
2022-11-08T21:36:58.566Z,101024.72
2022-11-08T21:40:01.834Z,101019.38
2022-11-08T21:43:04.418Z,101013.66
2022-11-08T21:46:23.231Z,101007.75
2022-11-08T21:49:25.748Z,101012.25
2022-11-08T21:52:28.831Z,101010.94
2022-11-08T21:55:32.031Z,101015.72
2022-11-08T21:58:35.125Z,101009.50
2022-11-08T22:01:38.050Z,101021.56
2022-11-08T22:04:40.968Z,101016.91
2022-11-08T22:07:43.499Z,101015.31
2022-11-08T22:10:47.718Z,101011.75
2022-11-08T22:13:50.399Z,101006.19
2022-11-08T22:16:53.243Z,101002.66
2022-11-08T22:19:55.816Z,101010.19
2022-11-08T22:22:58.722Z,101000.41
2022-11-08T22:26:01.811Z,101003.78
2022-11-08T22:29:05.006Z,100996.09
2022-11-08T22:32:07.554Z,101010.50
2022-11-08T22:35:10.416Z,101007.47
2022-11-08T22:38:13.910Z,101008.91
2022-11-08T22:41:19.141Z,101019.31
2022-11-08T22:44:22.162Z,101010.34
2022-11-08T22:47:24.996Z,101006.81
2022-11-08T22:50:28.102Z,101011.78
2022-11-08T22:53:31.051Z,101006.03
2022-11-08T22:56:33.675Z,100997.69
2022-11-08T22:59:36.714Z,101010.03
2022-11-08T23:02:39.265Z,101016.13
2022-11-08T23:05:42.680Z,101014.03
2022-11-08T23:08:47.162Z,101015.63
2022-11-08T23:12:08.528Z,101012.75
2022-11-08T23:15:29.546Z,100995.78
2022-11-08T23:18:32.458Z,101005.84
2022-11-08T23:34:47.096Z,101010.50
2022-11-08T23:37:50.518Z,101000.41
2022-11-08T23:41:11.643Z,101016.87
2022-11-08T23:44:26.778Z,101014.66
2022-11-08T23:47:29.359Z,101019.31
2022-11-08T23:50:33.994Z,101012.25
2022-11-08T23:53:37.344Z,101019.44
2022-11-08T23:56:40.862Z,101018.16
2022-11-08T23:59:43.544Z,101015.59
